createdAt,value
2017-12-11T00:00:51.103Z,4.70
2017-12-11T00:03:19.241Z,4.70
2017-12-11T00:05:47.353Z,4.70
2017-12-11T00:08:16.341Z,4.70
2017-12-11T00:10:45.228Z,4.70
2017-12-11T00:13:13.356Z,4.70
2017-12-11T00:15:41.468Z,4.70
2017-12-11T00:18:09.648Z,4.60
2017-12-11T00:20:37.758Z,4.70
2017-12-11T00:23:05.897Z,4.70
2017-12-11T00:25:34.006Z,4.70
2017-12-11T00:28:02.210Z,4.80
2017-12-11T00:30:30.334Z,4.70
2017-12-11T00:32:59.275Z,4.80
2017-12-11T00:35:27.399Z,4.70
2017-12-11T00:37:56.343Z,4.80
2017-12-11T00:40:25.231Z,4.80
2017-12-11T00:42:53.378Z,4.80
2017-12-11T00:45:21.502Z,4.80
2017-12-11T00:47:49.689Z,4.80
2017-12-11T00:50:18.622Z,4.80
2017-12-11T00:52:46.868Z,4.80
2017-12-11T00:55:15.766Z,4.80
2017-12-11T00:57:43.926Z,4.80
2017-12-11T01:00:12.069Z,4.80
2017-12-11T01:02:40.205Z,4.70
2017-12-11T01:05:08.338Z,4.80
2017-12-11T01:07:37.262Z,4.80
2017-12-11T01:10:05.395Z,4.80
2017-12-11T01:12:33.502Z,4.80
2017-12-11T01:15:01.639Z,4.80
2017-12-11T01:17:29.767Z,4.90
2017-12-11T01:19:57.918Z,4.80
2017-12-11T01:22:26.031Z,4.80
2017-12-11T01:24:54.177Z,4.70
2017-12-11T01:27:22.309Z,4.70
2017-12-11T01:29:50.457Z,4.70
2017-12-11T01:32:18.596Z,4.70
2017-12-11T01:34:46.742Z,4.70
2017-12-11T01:37:16.533Z,4.80
2017-12-11T01:39:44.670Z,4.80
2017-12-11T01:42:12.866Z,4.80
2017-12-11T01:44:41.772Z,4.60
2017-12-11T01:47:09.899Z,4.70
2017-12-11T01:49:38.405Z,4.70
2017-12-11T01:52:06.517Z,4.80
2017-12-11T01:54:35.417Z,4.80
2017-12-11T01:57:04.330Z,4.80
2017-12-11T01:59:32.471Z,4.80
2017-12-11T02:02:01.345Z,4.80
2017-12-11T02:04:29.489Z,4.80
2017-12-11T02:06:57.608Z,4.80
2017-12-11T02:09:27.612Z,4.80
2017-12-11T02:11:55.954Z,4.70
2017-12-11T02:14:24.091Z,4.80
2017-12-11T02:16:52.214Z,4.80
2017-12-11T02:19:20.348Z,4.80
2017-12-11T02:21:48.463Z,4.70
2017-12-11T02:24:16.842Z,4.80
2017-12-11T02:26:44.949Z,4.80
2017-12-11T02:29:13.858Z,4.70
2017-12-11T02:31:41.993Z,4.70
2017-12-11T02:34:10.148Z,4.60
2017-12-11T02:36:38.278Z,4.70
2017-12-11T02:39:06.427Z,4.70
2017-12-11T02:41:34.531Z,4.60
2017-12-11T02:44:02.667Z,4.60
2017-12-11T02:46:30.811Z,4.50
2017-12-11T02:48:59.880Z,4.50
2017-12-11T02:51:28.033Z,4.50
2017-12-11T02:53:56.182Z,4.50
2017-12-11T02:56:24.318Z,4.40
2017-12-11T02:58:52.434Z,4.40
2017-12-11T03:01:21.335Z,4.40
2017-12-11T03:03:50.228Z,4.40
2017-12-11T03:06:19.145Z,4.40
2017-12-11T03:08:47.265Z,4.40
2017-12-11T03:11:15.422Z,4.30
2017-12-11T03:13:43.558Z,4.40
2017-12-11T03:16:11.701Z,4.40
2017-12-11T03:18:40.579Z,4.30
2017-12-11T03:21:08.732Z,4.30
2017-12-11T03:23:36.849Z,4.30
2017-12-11T03:26:05.766Z,4.10
2017-12-11T03:28:33.885Z,4.10
2017-12-11T03:31:02.032Z,4.10
2017-12-11T03:33:30.966Z,4.10
2017-12-11T03:35:59.878Z,4.00
2017-12-11T03:38:27.984Z,4.00
2017-12-11T03:40:56.130Z,3.90
2017-12-11T03:43:24.241Z,3.90
2017-12-11T03:45:52.397Z,4.00
2017-12-11T03:48:20.529Z,4.00
2017-12-11T03:50:49.449Z,3.90
2017-12-11T03:53:17.575Z,3.90
2017-12-11T03:55:45.702Z,4.00
2017-12-11T03:58:13.851Z,3.90
2017-12-11T04:00:42.020Z,3.90
2017-12-11T04:03:10.161Z,3.90
2017-12-11T04:05:38.295Z,3.90
2017-12-11T04:08:06.451Z,3.90
2017-12-11T04:10:34.578Z,3.80
2017-12-11T04:13:02.734Z,3.80
2017-12-11T04:15:30.854Z,3.80
2017-12-11T04:17:59.769Z,3.80
2017-12-11T04:20:27.917Z,3.80
2017-12-11T04:22:56.838Z,3.90
2017-12-11T04:25:24.962Z,3.90
2017-12-11T04:27:53.116Z,4.10
2017-12-11T04:30:21.225Z,4.10
2017-12-11T04:32:50.134Z,3.90
2017-12-11T04:35:18.267Z,3.80
2017-12-11T04:37:46.407Z,4.00
2017-12-11T04:40:14.534Z,3.90
2017-12-11T04:42:43.490Z,4.00
2017-12-11T04:45:11.617Z,3.90
2017-12-11T04:47:39.769Z,4.00
2017-12-11T04:50:08.662Z,3.90
2017-12-11T04:52:37.593Z,3.90
2017-12-11T04:55:05.709Z,3.80
2017-12-11T04:57:33.874Z,3.80
2017-12-11T05:00:02.030Z,3.90
2017-12-11T05:02:35.785Z,3.80
2017-12-11T05:05:03.912Z,3.80
2017-12-11T05:07:32.029Z,3.70
2017-12-11T05:10:00.942Z,3.70
2017-12-11T05:12:29.101Z,3.60
2017-12-11T05:14:57.269Z,3.60
2017-12-11T05:17:26.170Z,3.60
2017-12-11T05:19:54.314Z,3.60
2017-12-11T05:22:22.473Z,3.60
2017-12-11T05:24:50.628Z,3.60
2017-12-11T05:27:18.765Z,3.60
2017-12-11T05:29:46.926Z,3.70
2017-12-11T05:32:15.831Z,3.90
2017-12-11T05:34:44.622Z,3.80
2017-12-11T05:37:12.756Z,3.80
2017-12-11T05:39:40.898Z,3.90
2017-12-11T05:42:09.043Z,3.80
2017-12-11T05:44:37.190Z,3.80
2017-12-11T05:47:06.086Z,3.60
2017-12-11T05:49:34.997Z,3.60
2017-12-11T05:52:04.156Z,3.60
2017-12-11T05:54:32.310Z,3.60
2017-12-11T05:57:00.449Z,3.60
2017-12-11T05:59:28.610Z,3.50
2017-12-11T06:01:56.737Z,3.70
2017-12-11T06:04:24.902Z,3.90
2017-12-11T06:06:53.026Z,3.70
2017-12-11T06:09:21.169Z,3.70
2017-12-11T06:11:49.285Z,3.80
2017-12-11T06:14:17.445Z,3.70
2017-12-11T06:16:46.330Z,3.70
2017-12-11T06:19:15.246Z,3.60
2017-12-11T06:21:43.385Z,3.60
2017-12-11T06:24:12.604Z,3.60
2017-12-11T06:26:40.777Z,3.50
2017-12-11T06:29:08.894Z,3.50
2017-12-11T06:31:37.054Z,3.30
2017-12-11T06:34:06.407Z,3.30
2017-12-11T06:36:35.326Z,3.50
2017-12-11T06:39:03.487Z,3.50
2017-12-11T06:41:31.640Z,3.60
2017-12-11T06:43:59.764Z,3.60
2017-12-11T06:46:27.919Z,3.70
2017-12-11T06:48:56.061Z,3.50
2017-12-11T06:51:24.999Z,3.70
2017-12-11T06:53:53.216Z,3.70
2017-12-11T06:56:21.430Z,3.70
2017-12-11T06:58:49.584Z,3.40
2017-12-11T07:01:18.521Z,3.30
2017-12-11T07:03:46.647Z,3.30
2017-12-11T07:06:15.299Z,3.30
2017-12-11T07:08:43.423Z,3.40
2017-12-11T07:11:11.576Z,3.60
2017-12-11T07:13:40.466Z,3.60
2017-12-11T07:16:09.415Z,3.60
2017-12-11T07:18:37.538Z,3.60
2017-12-11T07:21:06.473Z,3.30
2017-12-11T07:23:34.590Z,3.20
2017-12-11T07:26:02.734Z,3.40
2017-12-11T07:28:30.884Z,3.40
2017-12-11T07:30:59.029Z,3.40
2017-12-11T07:33:27.157Z,3.40
2017-12-11T07:35:55.323Z,3.30
2017-12-11T07:38:23.454Z,3.10
2017-12-11T07:40:51.586Z,3.30
2017-12-11T07:43:19.830Z,3.40
2017-12-11T07:45:48.786Z,3.40
2017-12-11T07:48:17.713Z,3.30
2017-12-11T07:50:45.839Z,3.30
2017-12-11T07:53:14.749Z,3.40
2017-12-11T07:55:42.902Z,3.40
2017-12-11T07:58:11.041Z,3.70
2017-12-11T08:00:39.163Z,3.60
2017-12-11T08:03:08.075Z,3.30
2017-12-11T08:05:36.194Z,3.30
2017-12-11T08:08:04.325Z,3.30
2017-12-11T08:10:32.473Z,3.20
2017-12-11T08:13:00.622Z,3.30
2017-12-11T08:15:28.761Z,3.40
2017-12-11T08:17:56.935Z,3.40
2017-12-11T08:20:25.086Z,3.40
2017-12-11T08:22:54.103Z,3.60
2017-12-11T08:25:22.237Z,3.70
2017-12-11T08:27:50.408Z,3.60
2017-12-11T08:30:19.378Z,3.50
2017-12-11T08:32:47.506Z,3.50
2017-12-11T08:35:15.671Z,3.50
2017-12-11T08:37:43.815Z,3.60
2017-12-11T08:40:12.705Z,3.50
2017-12-11T08:42:41.078Z,3.60
2017-12-11T08:45:09.230Z,3.60
2017-12-11T08:47:37.359Z,3.70
2017-12-11T08:50:06.267Z,3.90
2017-12-11T08:52:34.437Z,3.90
2017-12-11T08:55:02.583Z,4.00
2017-12-11T08:57:30.717Z,3.70
2017-12-11T08:59:58.865Z,3.70
2017-12-11T09:02:26.989Z,3.80
2017-12-11T09:04:55.147Z,3.70
2017-12-11T09:07:24.101Z,3.70
2017-12-11T09:09:52.252Z,3.70
2017-12-11T09:12:21.166Z,3.70
2017-12-11T09:14:49.326Z,3.60
2017-12-11T09:17:17.555Z,3.70
2017-12-11T09:19:45.714Z,3.80
2017-12-11T09:22:13.846Z,3.90
2017-12-11T09:24:41.985Z,3.80
2017-12-11T09:27:10.130Z,3.80
2017-12-11T09:29:38.257Z,3.90
2017-12-11T09:32:07.402Z,4.10
2017-12-11T09:34:35.526Z,4.10
2017-12-11T09:37:04.452Z,3.90
2017-12-11T09:39:32.622Z,3.90
2017-12-11T09:42:01.653Z,3.90
2017-12-11T09:44:29.784Z,4.00
2017-12-11T09:46:57.934Z,4.10
2017-12-11T09:49:26.819Z,4.10
2017-12-11T09:51:54.974Z,4.10
2017-12-11T09:54:23.089Z,4.10
2017-12-11T09:56:51.238Z,4.00
2017-12-11T09:59:19.360Z,4.10
2017-12-11T10:01:47.592Z,4.00
2017-12-11T10:04:16.488Z,3.80
2017-12-11T10:06:45.401Z,3.70
2017-12-11T10:09:13.526Z,3.70
2017-12-11T10:11:41.641Z,3.70
2017-12-11T10:14:09.819Z,3.60
2017-12-11T10:16:37.943Z,3.80
2017-12-11T10:19:06.102Z,4.00
2017-12-11T10:21:34.254Z,4.10
2017-12-11T10:24:02.632Z,4.10
2017-12-11T10:26:30.846Z,4.10
2017-12-11T10:28:59.138Z,4.10
2017-12-11T10:31:27.366Z,4.10
2017-12-11T10:33:56.638Z,4.00
2017-12-11T10:36:25.530Z,3.90
2017-12-11T10:38:54.471Z,3.90
2017-12-11T10:41:23.454Z,3.90
2017-12-11T10:43:51.570Z,3.90
2017-12-11T10:46:20.610Z,3.90
2017-12-11T10:48:48.758Z,3.90
2017-12-11T10:51:16.891Z,3.90
2017-12-11T10:53:45.025Z,3.80
2017-12-11T10:56:13.146Z,3.90
2017-12-11T10:58:41.302Z,3.80
2017-12-11T11:01:09.444Z,3.80
2017-12-11T11:03:38.047Z,3.90
2017-12-11T11:06:06.305Z,3.80
2017-12-11T11:08:34.514Z,3.90
2017-12-11T11:11:02.692Z,3.90
2017-12-11T11:13:30.826Z,4.00
2017-12-11T11:15:59.145Z,4.00
2017-12-11T11:18:28.163Z,3.90
2017-12-11T11:20:57.154Z,3.90
2017-12-11T11:23:26.051Z,3.90
2017-12-11T11:25:54.954Z,3.90
2017-12-11T11:28:23.194Z,3.90
2017-12-11T11:30:52.226Z,3.90
2017-12-11T11:33:21.731Z,3.80
2017-12-11T11:35:49.883Z,3.80
2017-12-11T11:38:18.774Z,3.70
2017-12-11T11:40:47.900Z,3.70
2017-12-11T11:43:16.115Z,3.70
2017-12-11T11:45:44.461Z,3.50
2017-12-11T11:48:12.872Z,3.40
2017-12-11T11:50:41.061Z,3.40
2017-12-11T11:53:09.183Z,3.40
2017-12-11T11:55:37.357Z,3.60
2017-12-11T11:58:05.506Z,3.40
2017-12-11T12:00:34.477Z,3.50
2017-12-11T12:03:02.809Z,3.50
2017-12-11T12:05:30.962Z,3.30
2017-12-11T12:07:59.116Z,3.50
2017-12-11T12:10:28.028Z,3.40
2017-12-11T12:12:56.166Z,3.40
2017-12-11T12:15:24.477Z,3.50
2017-12-11T12:17:52.792Z,3.40
2017-12-11T12:20:21.338Z,3.40
2017-12-11T12:22:49.666Z,3.40
2017-12-11T12:25:18.428Z,3.40
2017-12-11T12:27:46.886Z,3.30
2017-12-11T12:30:15.140Z,3.50
2017-12-11T12:32:43.525Z,3.40
2017-12-11T12:35:12.433Z,3.50
2017-12-11T12:37:40.681Z,3.50
2017-12-11T12:40:08.806Z,3.60
2017-12-11T12:42:36.950Z,3.60
2017-12-11T12:45:05.075Z,3.60
2017-12-11T12:47:33.217Z,3.70
2017-12-11T12:50:01.351Z,3.60
2017-12-11T12:52:30.269Z,3.70
2017-12-11T12:54:58.386Z,3.70
2017-12-11T12:57:27.525Z,3.60
2017-12-11T12:59:55.673Z,3.80
2017-12-11T13:02:23.826Z,3.70
2017-12-11T13:04:51.964Z,3.70
2017-12-11T13:07:20.153Z,3.60
2017-12-11T13:09:48.343Z,3.40
2017-12-11T13:12:16.523Z,3.40
2017-12-11T13:14:44.665Z,3.40
2017-12-11T13:17:12.804Z,3.50
2017-12-11T13:19:46.643Z,3.30
2017-12-11T13:22:14.779Z,3.30
2017-12-11T13:24:47.477Z,3.30
2017-12-11T13:27:15.939Z,3.40
2017-12-11T13:29:44.858Z,3.40
2017-12-11T13:32:13.032Z,3.30
2017-12-11T13:34:41.970Z,3.30
2017-12-11T13:37:10.098Z,3.20
2017-12-11T13:39:39.023Z,3.10
2017-12-11T13:42:07.147Z,3.10
2017-12-11T13:44:36.123Z,3.30
2017-12-11T13:47:04.302Z,3.30
2017-12-11T13:49:32.681Z,3.20
2017-12-11T13:52:00.950Z,3.30
2017-12-11T13:54:30.467Z,3.10
2017-12-11T13:56:58.769Z,3.00
2017-12-11T13:59:27.686Z,2.80
2017-12-11T14:01:55.806Z,2.70
2017-12-11T14:04:24.970Z,2.70
2017-12-11T14:06:53.098Z,2.70
2017-12-11T14:09:22.034Z,2.80
2017-12-11T14:11:50.166Z,2.80
2017-12-11T14:14:19.090Z,3.00
2017-12-11T14:16:47.245Z,2.90
2017-12-11T14:19:15.390Z,2.80
2017-12-11T14:21:43.520Z,2.90
2017-12-11T14:24:11.676Z,3.00
2017-12-11T14:26:39.813Z,3.00
2017-12-11T14:29:07.960Z,3.20
2017-12-11T14:31:36.082Z,3.30
2017-12-11T14:34:04.225Z,3.40
2017-12-11T14:36:32.362Z,3.50
2017-12-11T14:39:00.510Z,3.30
2017-12-11T14:41:28.656Z,3.10
2017-12-11T14:43:56.811Z,3.20
2017-12-11T14:46:25.002Z,3.40
2017-12-11T14:48:53.176Z,3.20
2017-12-11T14:51:21.291Z,3.20
2017-12-11T14:53:49.437Z,3.30
2017-12-11T14:56:17.570Z,3.50
2017-12-11T14:58:45.689Z,3.40
2017-12-11T15:01:14.616Z,3.20
2017-12-11T15:03:42.742Z,3.20
2017-12-11T15:06:11.733Z,3.10
2017-12-11T15:08:40.618Z,3.30
2017-12-11T15:11:09.558Z,3.30
2017-12-11T15:13:37.960Z,3.20
2017-12-11T15:16:07.046Z,3.20
2017-12-11T15:18:35.186Z,3.20
2017-12-11T15:21:03.518Z,3.10
2017-12-11T15:23:31.654Z,3.20
2017-12-11T15:25:59.826Z,3.20
2017-12-11T15:28:28.738Z,3.00
2017-12-11T15:30:56.886Z,3.00
2017-12-11T15:33:25.765Z,3.20
2017-12-11T15:35:54.681Z,3.50
2017-12-11T15:38:22.805Z,3.40
2017-12-11T15:40:50.957Z,3.60
2017-12-11T15:43:19.085Z,3.70
2017-12-11T15:45:48.011Z,3.40
2017-12-11T15:48:16.136Z,3.40
2017-12-11T15:50:44.286Z,3.50
2017-12-11T15:53:12.425Z,3.60
2017-12-11T15:55:40.582Z,3.50
2017-12-11T15:58:08.793Z,3.70
2017-12-11T16:00:36.922Z,3.70
2017-12-11T16:03:05.083Z,3.60
2017-12-11T16:05:33.964Z,3.10
2017-12-11T16:08:03.010Z,3.10
2017-12-11T16:10:31.141Z,3.10
2017-12-11T16:13:00.078Z,3.30
2017-12-11T16:15:28.211Z,3.30
2017-12-11T16:17:57.187Z,3.60
2017-12-11T16:20:25.306Z,3.50
2017-12-11T16:22:54.085Z,3.30
2017-12-11T16:25:22.209Z,3.20
2017-12-11T16:27:50.347Z,3.20
2017-12-11T16:30:18.475Z,3.20
2017-12-11T16:32:46.617Z,3.40
2017-12-11T16:35:15.171Z,3.40
2017-12-11T16:37:43.318Z,3.50
2017-12-11T16:40:12.198Z,3.60
2017-12-11T16:42:40.353Z,3.60
2017-12-11T16:45:08.498Z,3.60
2017-12-11T16:47:36.645Z,3.70
2017-12-11T16:50:04.789Z,3.60
2017-12-11T16:52:32.953Z,3.50
2017-12-11T16:55:01.073Z,3.50
2017-12-11T16:57:29.309Z,3.50
2017-12-11T16:59:57.454Z,3.80
2017-12-11T17:02:25.639Z,4.00
2017-12-11T17:04:53.790Z,4.20
2017-12-11T17:07:21.950Z,4.40
2017-12-11T17:09:50.755Z,4.40
2017-12-11T17:12:18.989Z,4.40
2017-12-11T17:14:47.895Z,4.50
2017-12-11T17:17:16.075Z,4.50
2017-12-11T17:19:44.195Z,4.60
2017-12-11T17:22:12.364Z,4.50
2017-12-11T17:24:40.502Z,4.50
2017-12-11T17:27:08.654Z,4.50
2017-12-11T17:29:37.590Z,4.50
2017-12-11T17:32:05.702Z,4.50
2017-12-11T17:34:33.961Z,4.60
2017-12-11T17:37:02.243Z,4.60
2017-12-11T17:39:30.484Z,4.60
2017-12-11T17:41:58.625Z,4.70
2017-12-11T17:44:27.551Z,4.80
2017-12-11T17:46:55.682Z,4.70
2017-12-11T17:49:23.823Z,4.90
2017-12-11T17:51:51.971Z,5.00
2017-12-11T17:54:20.159Z,5.10
2017-12-11T17:56:48.312Z,5.20
2017-12-11T17:59:16.445Z,5.20
2017-12-11T18:01:44.586Z,5.10
2017-12-11T18:04:12.730Z,5.20
2017-12-11T18:06:40.850Z,5.20
2017-12-11T18:09:09.080Z,5.20
2017-12-11T18:11:37.224Z,5.20
2017-12-11T18:14:06.136Z,5.30
2017-12-11T18:16:35.733Z,5.30
2017-12-11T18:19:04.889Z,5.40
2017-12-11T18:21:33.029Z,5.40
2017-12-11T18:24:01.262Z,5.40
2017-12-11T18:26:29.587Z,5.50
2017-12-11T18:28:57.941Z,5.60
2017-12-11T18:31:26.067Z,5.60
2017-12-11T18:33:54.219Z,5.70
2017-12-11T18:36:22.348Z,5.70
2017-12-11T18:38:50.531Z,5.80
2017-12-11T18:41:19.662Z,5.60
2017-12-11T18:43:47.859Z,5.60
2017-12-11T18:46:15.985Z,5.60
2017-12-11T18:48:44.135Z,5.40
2017-12-11T18:51:13.025Z,5.30
2017-12-11T18:53:41.169Z,5.30
2017-12-11T18:56:09.322Z,5.30
2017-12-11T18:58:37.896Z,5.20
2017-12-11T19:01:06.046Z,5.20
2017-12-11T19:03:34.934Z,5.10
2017-12-11T19:06:03.882Z,5.10
2017-12-11T19:08:32.014Z,5.10
2017-12-11T19:11:00.170Z,5.20
2017-12-11T19:13:28.297Z,5.30
2017-12-11T19:15:56.483Z,5.30
2017-12-11T19:18:24.608Z,5.30
2017-12-11T19:20:53.937Z,5.30
2017-12-11T19:23:22.063Z,5.20
2017-12-11T19:25:50.214Z,5.30
2017-12-11T19:28:18.344Z,5.40
2017-12-11T19:30:46.495Z,5.40
2017-12-11T19:33:15.405Z,5.70
2017-12-11T19:35:43.664Z,5.70
2017-12-11T19:38:11.792Z,5.80
2017-12-11T19:40:39.930Z,5.90
2017-12-11T19:43:08.087Z,5.90
2017-12-11T19:45:36.302Z,5.90
2017-12-11T19:48:04.432Z,5.90
2017-12-11T19:50:32.911Z,5.70
2017-12-11T19:53:01.061Z,5.60
2017-12-11T19:55:29.233Z,5.50
2017-12-11T19:57:57.353Z,5.60
2017-12-11T20:00:25.828Z,5.50
2017-12-11T20:02:53.983Z,5.50
2017-12-11T20:05:22.944Z,5.60
2017-12-11T20:07:51.155Z,5.60
2017-12-11T20:10:20.203Z,5.70
2017-12-11T20:12:48.447Z,5.70
2017-12-11T20:15:16.575Z,5.70
2017-12-11T20:17:45.536Z,5.70
2017-12-11T20:20:13.665Z,5.70
2017-12-11T20:22:42.574Z,5.70
2017-12-11T20:25:10.704Z,5.70
2017-12-11T20:27:38.851Z,5.70
2017-12-11T20:30:06.996Z,5.70
2017-12-11T20:32:35.178Z,5.70
2017-12-11T20:35:03.339Z,5.70
2017-12-11T20:37:31.555Z,5.70
2017-12-11T20:39:59.702Z,5.60
2017-12-11T20:42:27.905Z,5.50
2017-12-11T20:44:56.834Z,5.60
2017-12-11T20:47:25.790Z,5.60
2017-12-11T20:49:53.910Z,5.60
2017-12-11T20:52:22.064Z,5.70
2017-12-11T20:54:50.174Z,5.80
2017-12-11T20:57:18.498Z,5.80
2017-12-11T20:59:46.631Z,5.80
2017-12-11T21:02:15.134Z,5.80
2017-12-11T21:04:44.080Z,5.80
2017-12-11T21:07:12.229Z,5.70
2017-12-11T21:09:40.369Z,5.70
2017-12-11T21:12:08.505Z,5.70
2017-12-11T21:14:36.626Z,5.80
2017-12-11T21:17:04.905Z,5.80
2017-12-11T21:19:33.098Z,5.80
2017-12-11T21:22:01.419Z,6.00
2017-12-11T21:24:29.594Z,6.10
2017-12-11T21:26:57.869Z,6.10
2017-12-11T21:29:25.987Z,6.10
2017-12-11T21:31:54.966Z,6.10
2017-12-11T21:34:23.110Z,6.10
2017-12-11T21:36:51.287Z,6.10
2017-12-11T21:39:19.426Z,6.00
2017-12-11T21:41:48.330Z,6.00
2017-12-11T21:44:17.383Z,6.10
2017-12-11T21:46:46.430Z,6.20
2017-12-11T21:49:14.644Z,6.20
2017-12-11T21:51:43.594Z,6.40
2017-12-11T21:54:11.743Z,6.40
2017-12-11T21:56:40.643Z,6.50
2017-12-11T21:59:09.578Z,6.50
2017-12-11T22:01:37.698Z,6.50
2017-12-11T22:04:05.878Z,6.50
2017-12-11T22:06:34.774Z,6.40
2017-12-11T22:09:03.673Z,6.60
2017-12-11T22:11:31.843Z,6.70
2017-12-11T22:14:00.158Z,6.70
2017-12-11T22:16:28.283Z,6.60
2017-12-11T22:18:57.201Z,6.60
2017-12-11T22:21:25.347Z,6.50
2017-12-11T22:23:54.273Z,6.60
2017-12-11T22:26:22.389Z,6.60
2017-12-11T22:28:50.525Z,6.70
2017-12-11T22:31:18.658Z,6.70
2017-12-11T22:33:47.594Z,6.80
2017-12-11T22:36:15.712Z,6.70
2017-12-11T22:38:45.017Z,6.80
2017-12-11T22:41:13.913Z,6.80
2017-12-11T22:43:42.830Z,6.80
2017-12-11T22:46:11.154Z,6.80
2017-12-11T22:48:39.326Z,6.80
2017-12-11T22:51:07.447Z,6.80
2017-12-11T22:53:36.362Z,7.00
2017-12-11T22:56:04.528Z,7.00
2017-12-11T22:58:32.705Z,7.20
2017-12-11T23:01:00.853Z,7.30
2017-12-11T23:03:29.117Z,7.40
2017-12-11T23:05:58.230Z,7.50
2017-12-11T23:08:26.397Z,7.50
2017-12-11T23:10:55.306Z,7.40
2017-12-11T23:13:23.460Z,7.30
2017-12-11T23:15:51.614Z,7.40
2017-12-11T23:18:19.755Z,7.40
2017-12-11T23:20:47.899Z,7.40
2017-12-11T23:23:16.769Z,7.40
2017-12-11T23:25:44.908Z,7.40
2017-12-11T23:28:13.026Z,7.40
2017-12-11T23:30:41.942Z,7.50
2017-12-11T23:33:10.051Z,7.50
2017-12-11T23:35:38.193Z,7.40
2017-12-11T23:38:06.320Z,7.30
2017-12-11T23:40:34.478Z,7.40
2017-12-11T23:43:03.160Z,7.30
2017-12-11T23:45:31.317Z,7.10
2017-12-11T23:47:59.438Z,7.10
2017-12-11T23:50:28.358Z,7.50
2017-12-11T23:52:56.474Z,7.50
2017-12-11T23:55:24.610Z,7.50
2017-12-11T23:57:52.730Z,7.50
